sensor_id;sensor_type;location;lat;lon;timestamp;temperature;humidity
38854;DHT22;24606;51.992;4.198;2023-02-15T00:00:43;19.30;61.50
38854;DHT22;24606;51.992;4.198;2023-02-15T00:05:47;19.30;61.50
38854;DHT22;24606;51.992;4.198;2023-02-15T00:10:48;19.30;61.60
38854;DHT22;24606;51.992;4.198;2023-02-15T00:15:50;19.20;61.40
38854;DHT22;24606;51.992;4.198;2023-02-15T00:20:54;19.20;61.40
38854;DHT22;24606;51.992;4.198;2023-02-15T00:26:04;19.20;61.40
38854;DHT22;24606;51.992;4.198;2023-02-15T00:31:07;19.20;61.40
38854;DHT22;24606;51.992;4.198;2023-02-15T00:36:11;19.20;61.40
38854;DHT22;24606;51.992;4.198;2023-02-15T00:41:13;19.10;61.40
38854;DHT22;24606;51.992;4.198;2023-02-15T00:46:15;19.10;61.20
38854;DHT22;24606;51.992;4.198;2023-02-15T00:51:19;19.10;61.40
38854;DHT22;24606;51.992;4.198;2023-02-15T00:56:21;19.10;61.30
38854;DHT22;24606;51.992;4.198;2023-02-15T01:01:23;19.00;61.30
38854;DHT22;24606;51.992;4.198;2023-02-15T01:06:27;19.00;61.40
38854;DHT22;24606;51.992;4.198;2023-02-15T01:11:29;19.00;61.80
38854;DHT22;24606;51.992;4.198;2023-02-15T01:16:31;18.90;61.10
38854;DHT22;24606;51.992;4.198;2023-02-15T01:21:34;19.00;61.40
38854;DHT22;24606;51.992;4.198;2023-02-15T01:26:36;18.90;61.20
38854;DHT22;24606;51.992;4.198;2023-02-15T01:31:38;18.90;61.20
38854;DHT22;24606;51.992;4.198;2023-02-15T01:36:41;18.80;61.20
38854;DHT22;24606;51.992;4.198;2023-02-15T01:41:43;18.90;61.30
38854;DHT22;24606;51.992;4.198;2023-02-15T01:46:50;18.80;61.20
38854;DHT22;24606;51.992;4.198;2023-02-15T01:51:54;18.80;61.10
38854;DHT22;24606;51.992;4.198;2023-02-15T01:56:59;18.80;61.10
38854;DHT22;24606;51.992;4.198;2023-02-15T02:02:02;18.80;61.00
38854;DHT22;24606;51.992;4.198;2023-02-15T02:07:08;18.80;61.00
38854;DHT22;24606;51.992;4.198;2023-02-15T02:12:11;18.80;60.90
38854;DHT22;24606;51.992;4.198;2023-02-15T02:17:15;18.70;61.00
38854;DHT22;24606;51.992;4.198;2023-02-15T02:22:49;18.70;61.00
38854;DHT22;24606;51.992;4.198;2023-02-15T02:28:06;18.70;61.00
38854;DHT22;24606;51.992;4.198;2023-02-15T02:33:31;18.70;60.90
38854;DHT22;24606;51.992;4.198;2023-02-15T02:38:44;18.70;61.00
38854;DHT22;24606;51.992;4.198;2023-02-15T02:43:51;18.60;61.00
38854;DHT22;24606;51.992;4.198;2023-02-15T02:48:56;18.60;61.00
38854;DHT22;24606;51.992;4.198;2023-02-15T02:54:00;18.60;61.00
38854;DHT22;24606;51.992;4.198;2023-02-15T02:59:09;18.60;60.90
38854;DHT22;24606;51.992;4.198;2023-02-15T03:04:15;18.60;60.90
38854;DHT22;24606;51.992;4.198;2023-02-15T03:09:23;18.60;61.00
38854;DHT22;24606;51.992;4.198;2023-02-15T03:14:35;18.50;60.90
38854;DHT22;24606;51.992;4.198;2023-02-15T03:19:39;18.50;60.90
38854;DHT22;24606;51.992;4.198;2023-02-15T03:24:44;18.50;60.70
38854;DHT22;24606;51.992;4.198;2023-02-15T03:29:51;18.50;60.80
38854;DHT22;24606;51.992;4.198;2023-02-15T03:34:55;18.50;60.80
38854;DHT22;24606;51.992;4.198;2023-02-15T03:40:00;18.40;60.80
38854;DHT22;24606;51.992;4.198;2023-02-15T03:45:27;18.40;60.70
38854;DHT22;24606;51.992;4.198;2023-02-15T03:50:35;18.40;60.70
38854;DHT22;24606;51.992;4.198;2023-02-15T03:55:55;18.40;60.60
38854;DHT22;24606;51.992;4.198;2023-02-15T04:01:00;18.40;60.60
38854;DHT22;24606;51.992;4.198;2023-02-15T04:06:22;18.40;60.60
38854;DHT22;24606;51.992;4.198;2023-02-15T04:11:24;18.40;60.60
38854;DHT22;24606;51.992;4.198;2023-02-15T04:16:28;18.40;60.40
38854;DHT22;24606;51.992;4.198;2023-02-15T04:21:31;18.40;60.50
38854;DHT22;24606;51.992;4.198;2023-02-15T04:26:50;18.30;60.40
38854;DHT22;24606;51.992;4.198;2023-02-15T04:31:55;18.30;60.50
38854;DHT22;24606;51.992;4.198;2023-02-15T04:36:59;18.30;60.40
38854;DHT22;24606;51.992;4.198;2023-02-15T04:42:01;18.30;60.50
38854;DHT22;24606;51.992;4.198;2023-02-15T04:47:03;18.20;60.30
38854;DHT22;24606;51.992;4.198;2023-02-15T04:52:06;18.20;60.40
38854;DHT22;24606;51.992;4.198;2023-02-15T04:57:08;18.20;60.30
38854;DHT22;24606;51.992;4.198;2023-02-15T05:02:10;18.20;60.10
38854;DHT22;24606;51.992;4.198;2023-02-15T05:07:13;18.30;60.00
38854;DHT22;24606;51.992;4.198;2023-02-15T05:12:15;18.50;59.70
38854;DHT22;24606;51.992;4.198;2023-02-15T05:17:17;18.60;59.30
38854;DHT22;24606;51.992;4.198;2023-02-15T05:22:20;18.70;59.10
38854;DHT22;24606;51.992;4.198;2023-02-15T05:27:22;18.80;59.00
38854;DHT22;24606;51.992;4.198;2023-02-15T05:32:42;18.80;58.90
38854;DHT22;24606;51.992;4.198;2023-02-15T05:37:45;18.80;58.90
38854;DHT22;24606;51.992;4.198;2023-02-15T05:42:46;18.80;58.80
38854;DHT22;24606;51.992;4.198;2023-02-15T05:47:48;18.80;58.80
38854;DHT22;24606;51.992;4.198;2023-02-15T05:52:52;18.80;58.70
38854;DHT22;24606;51.992;4.198;2023-02-15T05:57:54;18.80;58.70
38854;DHT22;24606;51.992;4.198;2023-02-15T06:02:56;18.80;58.70
38854;DHT22;24606;51.992;4.198;2023-02-15T06:07:59;18.80;59.20
38854;DHT22;24606;51.992;4.198;2023-02-15T06:13:01;18.80;58.50
38854;DHT22;24606;51.992;4.198;2023-02-15T06:18:03;18.90;58.60
38854;DHT22;24606;51.992;4.198;2023-02-15T06:23:06;18.90;58.50
38854;DHT22;24606;51.992;4.198;2023-02-15T06:28:08;18.90;58.40
38854;DHT22;24606;51.992;4.198;2023-02-15T06:33:10;18.90;58.50
38854;DHT22;24606;51.992;4.198;2023-02-15T06:38:13;18.90;58.50
38854;DHT22;24606;51.992;4.198;2023-02-15T06:43:15;18.90;58.50
38854;DHT22;24606;51.992;4.198;2023-02-15T06:48:17;18.90;58.40
38854;DHT22;24606;51.992;4.198;2023-02-15T06:53:20;18.90;58.40
38854;DHT22;24606;51.992;4.198;2023-02-15T06:58:22;18.90;58.40
38854;DHT22;24606;51.992;4.198;2023-02-15T07:15:25;18.90;57.80
38854;DHT22;24606;51.992;4.198;2023-02-15T07:20:27;18.80;58.40
38854;DHT22;24606;51.992;4.198;2023-02-15T07:25:30;18.80;58.30
38854;DHT22;24606;51.992;4.198;2023-02-15T07:30:33;18.80;58.20
38854;DHT22;24606;51.992;4.198;2023-02-15T07:35:36;18.80;58.10
38854;DHT22;24606;51.992;4.198;2023-02-15T07:40:38;18.80;58.10
38854;DHT22;24606;51.992;4.198;2023-02-15T07:45:41;18.80;58.20
38854;DHT22;24606;51.992;4.198;2023-02-15T07:50:43;18.70;58.20
38854;DHT22;24606;51.992;4.198;2023-02-15T07:55:45;18.70;58.30
38854;DHT22;24606;51.992;4.198;2023-02-15T08:00:48;18.60;58.40
38854;DHT22;24606;51.992;4.198;2023-02-15T08:05:59;18.60;58.50
38854;DHT22;24606;51.992;4.198;2023-02-15T08:11:02;18.60;58.50
38854;DHT22;24606;51.992;4.198;2023-02-15T08:16:24;18.50;58.70
38854;DHT22;24606;51.992;4.198;2023-02-15T08:21:27;18.50;59.20
38854;DHT22;24606;51.992;4.198;2023-02-15T08:26:30;18.40;59.60
38854;DHT22;24606;51.992;4.198;2023-02-15T08:31:34;18.40;59.70
38854;DHT22;24606;51.992;4.198;2023-02-15T08:36:37;18.40;59.80
38854;DHT22;24606;51.992;4.198;2023-02-15T08:41:42;18.40;59.60
38854;DHT22;24606;51.992;4.198;2023-02-15T08:46:46;18.40;59.50
38854;DHT22;24606;51.992;4.198;2023-02-15T08:51:49;18.40;59.30
38854;DHT22;24606;51.992;4.198;2023-02-15T08:56:51;18.40;59.40
38854;DHT22;24606;51.992;4.198;2023-02-15T09:01:55;18.40;59.40
38854;DHT22;24606;51.992;4.198;2023-02-15T09:06:57;18.40;59.40
38854;DHT22;24606;51.992;4.198;2023-02-15T09:11:59;18.40;59.50
38854;DHT22;24606;51.992;4.198;2023-02-15T09:17:02;18.40;59.70
38854;DHT22;24606;51.992;4.198;2023-02-15T09:22:04;18.40;59.40
38854;DHT22;24606;51.992;4.198;2023-02-15T09:27:06;18.40;59.40
38854;DHT22;24606;51.992;4.198;2023-02-15T09:32:13;18.40;59.30
38854;DHT22;24606;51.992;4.198;2023-02-15T09:37:15;18.40;59.20
38854;DHT22;24606;51.992;4.198;2023-02-15T09:42:43;18.40;59.30
38854;DHT22;24606;51.992;4.198;2023-02-15T09:48:20;18.40;59.30
38854;DHT22;24606;51.992;4.198;2023-02-15T09:53:38;18.40;59.20
38854;DHT22;24606;51.992;4.198;2023-02-15T09:58:50;18.50;59.30
38854;DHT22;24606;51.992;4.198;2023-02-15T10:04:05;18.50;59.50
38854;DHT22;24606;51.992;4.198;2023-02-15T10:09:18;18.40;59.80
38854;DHT22;24606;51.992;4.198;2023-02-15T10:14:37;18.20;60.90
38854;DHT22;24606;51.992;4.198;2023-02-15T10:19:49;18.30;60.60
38854;DHT22;24606;51.992;4.198;2023-02-15T10:25:16;18.30;60.60
38854;DHT22;24606;51.992;4.198;2023-02-15T10:30:30;18.40;60.60
38854;DHT22;24606;51.992;4.198;2023-02-15T10:35:40;18.40;60.70
38854;DHT22;24606;51.992;4.198;2023-02-15T10:40:55;18.50;60.60
38854;DHT22;24606;51.992;4.198;2023-02-15T10:46:05;18.50;60.50
38854;DHT22;24606;51.992;4.198;2023-02-15T10:51:16;18.40;60.60
38854;DHT22;24606;51.992;4.198;2023-02-15T10:56:24;18.40;60.60
38854;DHT22;24606;51.992;4.198;2023-02-15T11:01:34;18.40;60.70
38854;DHT22;24606;51.992;4.198;2023-02-15T11:06:40;18.50;60.60
38854;DHT22;24606;51.992;4.198;2023-02-15T11:11:45;18.40;60.50
38854;DHT22;24606;51.992;4.198;2023-02-15T11:16:51;18.40;60.80
38854;DHT22;24606;51.992;4.198;2023-02-15T11:21:59;18.40;60.80
38854;DHT22;24606;51.992;4.198;2023-02-15T11:27:04;18.40;61.20
38854;DHT22;24606;51.992;4.198;2023-02-15T11:32:17;18.00;57.10
38854;DHT22;24606;51.992;4.198;2023-02-15T11:37:26;18.10;62.00
38854;DHT22;24606;51.992;4.198;2023-02-15T11:42:31;18.20;61.70
38854;DHT22;24606;51.992;4.198;2023-02-15T11:47:34;18.30;61.40
38854;DHT22;24606;51.992;4.198;2023-02-15T11:52:37;17.30;65.90
38854;DHT22;24606;51.992;4.198;2023-02-15T11:57:42;16.60;68.70
38854;DHT22;24606;51.992;4.198;2023-02-15T12:02:52;18.00;63.10
38854;DHT22;24606;51.992;4.198;2023-02-15T12:08:00;17.40;66.40
38854;DHT22;24606;51.992;4.198;2023-02-15T12:13:12;17.00;61.50
38854;DHT22;24606;51.992;4.198;2023-02-15T12:18:31;16.40;69.50
38854;DHT22;24606;51.992;4.198;2023-02-15T12:23:43;17.10;67.40
38854;DHT22;24606;51.992;4.198;2023-02-15T12:28:49;17.40;66.00
38854;DHT22;24606;51.992;4.198;2023-02-15T12:33:54;18.10;62.80
38854;DHT22;24606;51.992;4.198;2023-02-15T12:39:17;18.20;61.80
38854;DHT22;24606;51.992;4.198;2023-02-15T12:44:22;18.40;61.40
38854;DHT22;24606;51.992;4.198;2023-02-15T12:49:26;18.20;61.70
38854;DHT22;24606;51.992;4.198;2023-02-15T12:54:38;18.40;61.10
38854;DHT22;24606;51.992;4.198;2023-02-15T12:59:48;18.40;59.50
38854;DHT22;24606;51.992;4.198;2023-02-15T13:04:50;18.30;59.10
38854;DHT22;24606;51.992;4.198;2023-02-15T13:09:54;17.40;64.60
38854;DHT22;24606;51.992;4.198;2023-02-15T13:14:56;18.00;62.60
38854;DHT22;24606;51.992;4.198;2023-02-15T13:20:02;18.50;61.20
38854;DHT22;24606;51.992;4.198;2023-02-15T13:25:13;18.50;61.20
38854;DHT22;24606;51.992;4.198;2023-02-15T13:30:34;17.80;58.30
38854;DHT22;24606;51.992;4.198;2023-02-15T13:35:40;17.60;62.10
38854;DHT22;24606;51.992;4.198;2023-02-15T13:40:50;18.40;61.30
38854;DHT22;24606;51.992;4.198;2023-02-15T13:46:14;18.10;59.00
38854;DHT22;24606;51.992;4.198;2023-02-15T13:51:23;17.10;60.70
38854;DHT22;24606;51.992;4.198;2023-02-15T13:56:38;17.40;64.40
38854;DHT22;24606;51.992;4.198;2023-02-15T14:01:45;18.10;58.70
38854;DHT22;24606;51.992;4.198;2023-02-15T14:07:03;17.90;61.40
38854;DHT22;24606;51.992;4.198;2023-02-15T14:12:30;17.60;59.10
38854;DHT22;24606;51.992;4.198;2023-02-15T14:17:46;17.50;62.10
38854;DHT22;24606;51.992;4.198;2023-02-15T14:22:56;16.90;70.40
38854;DHT22;24606;51.992;4.198;2023-02-15T14:28:08;18.30;64.70
38854;DHT22;24606;51.992;4.198;2023-02-15T14:33:31;17.30;65.00
38854;DHT22;24606;51.992;4.198;2023-02-15T14:38:38;18.80;64.10
38854;DHT22;24606;51.992;4.198;2023-02-15T14:43:49;18.80;62.30
38854;DHT22;24606;51.992;4.198;2023-02-15T14:48:55;19.30;59.50
38854;DHT22;24606;51.992;4.198;2023-02-15T14:53:57;19.00;64.40
38854;DHT22;24606;51.992;4.198;2023-02-15T14:59:13;19.10;62.70
38854;DHT22;24606;51.992;4.198;2023-02-15T15:04:24;19.60;61.70
38854;DHT22;24606;51.992;4.198;2023-02-15T15:09:29;19.80;61.20
38854;DHT22;24606;51.992;4.198;2023-02-15T15:14:40;19.60;61.90
38854;DHT22;24606;51.992;4.198;2023-02-15T15:20:04;19.80;61.40
38854;DHT22;24606;51.992;4.198;2023-02-15T15:25:10;19.80;60.90
38854;DHT22;24606;51.992;4.198;2023-02-15T15:30:48;20.10;60.50
38854;DHT22;24606;51.992;4.198;2023-02-15T15:36:07;20.00;60.50
38854;DHT22;24606;51.992;4.198;2023-02-15T15:41:19;20.10;60.40
38854;DHT22;24606;51.992;4.198;2023-02-15T15:52:15;20.20;60.40
38854;DHT22;24606;51.992;4.198;2023-02-15T15:57:24;20.20;60.50
38854;DHT22;24606;51.992;4.198;2023-02-15T16:02:27;20.20;61.00
38854;DHT22;24606;51.992;4.198;2023-02-15T16:07:31;20.20;60.40
38854;DHT22;24606;51.992;4.198;2023-02-15T16:12:35;20.30;60.60
38854;DHT22;24606;51.992;4.198;2023-02-15T16:17:37;20.30;60.60
38854;DHT22;24606;51.992;4.198;2023-02-15T16:22:44;20.30;60.40
38854;DHT22;24606;51.992;4.198;2023-02-15T16:27:48;20.40;60.40
38854;DHT22;24606;51.992;4.198;2023-02-15T16:32:53;20.40;60.50
38854;DHT22;24606;51.992;4.198;2023-02-15T16:37:56;20.50;60.60
38854;DHT22;24606;51.992;4.198;2023-02-15T16:43:02;20.60;59.80
38854;DHT22;24606;51.992;4.198;2023-02-15T16:48:08;20.60;59.30
38854;DHT22;24606;51.992;4.198;2023-02-15T16:53:18;20.40;59.40
38854;DHT22;24606;51.992;4.198;2023-02-15T16:58:27;20.50;59.10
38854;DHT22;24606;51.992;4.198;2023-02-15T17:03:30;20.50;58.90
38854;DHT22;24606;51.992;4.198;2023-02-15T17:08:34;20.50;58.70
38854;DHT22;24606;51.992;4.198;2023-02-15T17:13:38;20.30;59.00
38854;DHT22;24606;51.992;4.198;2023-02-15T17:18:44;20.20;59.50
38854;DHT22;24606;51.992;4.198;2023-02-15T17:23:49;20.40;59.20
38854;DHT22;24606;51.992;4.198;2023-02-15T17:28:54;20.40;58.80
38854;DHT22;24606;51.992;4.198;2023-02-15T17:33:57;20.40;58.80
38854;DHT22;24606;51.992;4.198;2023-02-15T17:39:01;20.30;59.30
38854;DHT22;24606;51.992;4.198;2023-02-15T17:44:04;20.30;59.80
38854;DHT22;24606;51.992;4.198;2023-02-15T17:49:18;20.20;60.00
38854;DHT22;24606;51.992;4.198;2023-02-15T17:54:25;20.10;61.00
38854;DHT22;24606;51.992;4.198;2023-02-15T17:59:44;20.00;60.90
38854;DHT22;24606;51.992;4.198;2023-02-15T18:05:07;20.00;60.40
38854;DHT22;24606;51.992;4.198;2023-02-15T18:10:28;19.50;59.60
38854;DHT22;24606;51.992;4.198;2023-02-15T18:15:47;20.30;60.70
38854;DHT22;24606;51.992;4.198;2023-02-15T18:20:49;18.90;62.80
38854;DHT22;24606;51.992;4.198;2023-02-15T18:25:52;17.10;73.20
38854;DHT22;24606;51.992;4.198;2023-02-15T18:30:55;18.20;70.80
38854;DHT22;24606;51.992;4.198;2023-02-15T18:35:56;16.30;81.30
38854;DHT22;24606;51.992;4.198;2023-02-15T18:41:01;16.00;81.80
38854;DHT22;24606;51.992;4.198;2023-02-15T18:46:03;14.10;79.60
38854;DHT22;24606;51.992;4.198;2023-02-15T18:51:15;15.00;90.30
38854;DHT22;24606;51.992;4.198;2023-02-15T18:56:20;15.00;87.30
38854;DHT22;24606;51.992;4.198;2023-02-15T19:01:23;15.60;76.60
38854;DHT22;24606;51.992;4.198;2023-02-15T19:06:26;14.50;92.20
38854;DHT22;24606;51.992;4.198;2023-02-15T19:11:31;15.20;78.70
38854;DHT22;24606;51.992;4.198;2023-02-15T19:16:34;15.70;78.10
38854;DHT22;24606;51.992;4.198;2023-02-15T19:21:37;15.10;90.90
38854;DHT22;24606;51.992;4.198;2023-02-15T19:26:41;13.30;85.60
38854;DHT22;24606;51.992;4.198;2023-02-15T19:31:43;14.50;90.20
38854;DHT22;24606;51.992;4.198;2023-02-15T19:36:47;13.60;97.80
38854;DHT22;24606;51.992;4.198;2023-02-15T19:41:51;13.90;93.50
38854;DHT22;24606;51.992;4.198;2023-02-15T19:46:53;14.90;92.50
38854;DHT22;24606;51.992;4.198;2023-02-15T19:51:55;15.00;94.10
38854;DHT22;24606;51.992;4.198;2023-02-15T19:56:59;16.60;74.90
38854;DHT22;24606;51.992;4.198;2023-02-15T20:02:01;15.60;92.00
38854;DHT22;24606;51.992;4.198;2023-02-15T20:07:06;16.40;68.00
38854;DHT22;24606;51.992;4.198;2023-02-15T20:12:19;16.90;81.50
38854;DHT22;24606;51.992;4.198;2023-02-15T20:17:21;16.90;79.00
38854;DHT22;24606;51.992;4.198;2023-02-15T20:22:25;16.30;89.40
38854;DHT22;24606;51.992;4.198;2023-02-15T20:27:30;15.60;90.00
38854;DHT22;24606;51.992;4.198;2023-02-15T20:32:33;15.90;91.00
38854;DHT22;24606;51.992;4.198;2023-02-15T20:37:35;15.70;87.50
38854;DHT22;24606;51.992;4.198;2023-02-15T20:42:38;13.60;83.70
38854;DHT22;24606;51.992;4.198;2023-02-15T20:47:40;16.20;87.80
38854;DHT22;24606;51.992;4.198;2023-02-15T20:52:44;15.40;91.20
38854;DHT22;24606;51.992;4.198;2023-02-15T20:57:47;16.70;86.80
38854;DHT22;24606;51.992;4.198;2023-02-15T21:02:50;15.20;91.60
38854;DHT22;24606;51.992;4.198;2023-02-15T21:07:53;17.60;75.50
38854;DHT22;24606;51.992;4.198;2023-02-15T21:12:57;18.10;61.40
38854;DHT22;24606;51.992;4.198;2023-02-15T21:18:02;17.70;76.10
38854;DHT22;24606;51.992;4.198;2023-02-15T21:23:04;17.10;69.10
38854;DHT22;24606;51.992;4.198;2023-02-15T21:28:16;17.10;77.70
38854;DHT22;24606;51.992;4.198;2023-02-15T21:33:19;18.10;70.80
38854;DHT22;24606;51.992;4.198;2023-02-15T21:38:23;18.20;67.50
38854;DHT22;24606;51.992;4.198;2023-02-15T21:43:27;19.30;63.80
38854;DHT22;24606;51.992;4.198;2023-02-15T21:48:46;19.10;62.40
38854;DHT22;24606;51.992;4.198;2023-02-15T21:53:48;19.40;63.50
38854;DHT22;24606;51.992;4.198;2023-02-15T21:58:51;19.40;63.40
38854;DHT22;24606;51.992;4.198;2023-02-15T22:03:55;19.60;61.60
38854;DHT22;24606;51.992;4.198;2023-02-15T22:08:58;19.90;60.50
38854;DHT22;24606;51.992;4.198;2023-02-15T22:14:01;19.20;61.50
38854;DHT22;24606;51.992;4.198;2023-02-15T22:19:04;19.80;60.50
38854;DHT22;24606;51.992;4.198;2023-02-15T22:24:06;19.80;60.10
38854;DHT22;24606;51.992;4.198;2023-02-15T22:29:12;19.10;60.90
38854;DHT22;24606;51.992;4.198;2023-02-15T22:34:24;19.50;61.50
38854;DHT22;24606;51.992;4.198;2023-02-15T22:39:26;19.00;62.80
38854;DHT22;24606;51.992;4.198;2023-02-15T22:44:32;19.60;60.60
38854;DHT22;24606;51.992;4.198;2023-02-15T22:49:35;19.40;60.70
38854;DHT22;24606;51.992;4.198;2023-02-15T22:54:36;19.60;60.00
38854;DHT22;24606;51.992;4.198;2023-02-15T22:59:40;19.80;59.60
38854;DHT22;24606;51.992;4.198;2023-02-15T23:04:42;19.60;59.80
38854;DHT22;24606;51.992;4.198;2023-02-15T23:09:44;19.20;60.40
38854;DHT22;24606;51.992;4.198;2023-02-15T23:14:47;19.00;61.40
38854;DHT22;24606;51.992;4.198;2023-02-15T23:19:49;18.50;60.00
38854;DHT22;24606;51.992;4.198;2023-02-15T23:24:52;19.00;62.00
38854;DHT22;24606;51.992;4.198;2023-02-15T23:29:55;19.30;60.50
38854;DHT22;24606;51.992;4.198;2023-02-15T23:34:57;19.40;59.60
38854;DHT22;24606;51.992;4.198;2023-02-15T23:39:58;19.40;59.80
38854;DHT22;24606;51.992;4.198;2023-02-15T23:45:22;19.30;58.80
38854;DHT22;24606;51.992;4.198;2023-02-15T23:50:27;19.30;59.80
38854;DHT22;24606;51.992;4.198;2023-02-15T23:55:33;18.70;61.60
